Time;durP1;ratioP1;P1;durP2;ratioP2;P2;SDS_P1;SDS_P2;PMS_P1;PMS_P2;Temp;Humidity;BMP_temperature;BMP_pressure;BME280_temperature;BME280_humidity;BME280_pressure;Samples;Min_cycle;Max_cycle;Signal;HPM_P1;HPM_P2
2023/12/05 00:02:24;;;;;;;15.57;8.88;;;;;;;1.77;77.54;100654.09;7396775;19;20035;-68
2023/12/05 00:04:52;;;;;;;15.07;7.93;;;;;;;1.87;77.71;100660.63;7395694;19;20035;-68
2023/12/05 00:07:22;;;;;;;17.92;9.15;;;;;;;1.83;77.57;100654.72;7395342;19;20381;-68
2023/12/05 00:09:51;;;;;;;18.20;9.70;;;;;;;1.93;77.27;100656.03;7394939;19;20022;-68
2023/12/05 00:12:19;;;;;;;15.93;8.23;;;;;;;1.95;77.16;100650.75;7395899;19;20018;-67
2023/12/05 00:14:47;;;;;;;16.52;8.90;;;;;;;1.86;77.56;100651.13;7395188;19;20340;-67
2023/12/05 00:17:15;;;;;;;16.48;8.52;;;;;;;1.87;78.40;100644.97;7395604;19;20035;-68
2023/12/05 00:19:43;;;;;;;17.77;8.75;;;;;;;1.97;78.03;100640.25;7391125;19;20014;-68
2023/12/05 00:22:10;;;;;;;17.73;8.77;;;;;;;1.95;77.69;100653.38;7395927;19;20011;-68
2023/12/05 00:24:39;;;;;;;16.75;8.80;;;;;;;1.85;77.95;100638.97;7396462;19;20034;-68
2023/12/05 00:27:06;;;;;;;16.95;8.57;;;;;;;1.81;78.36;100634.78;7394731;19;20042;-68
2023/12/05 00:29:37;;;;;;;15.90;8.90;;;;;;;1.81;78.33;100638.25;7393656;19;20029;-68
2023/12/05 00:32:05;;;;;;;15.13;8.25;;;;;;;1.91;77.54;100636.97;7394258;19;20018;-68
2023/12/05 00:34:33;;;;;;;16.13;8.45;;;;;;;1.76;77.99;100634.13;7394138;19;20035;-68
2023/12/05 00:37:01;;;;;;;14.93;8.70;;;;;;;1.82;77.66;100626.88;7393153;19;20014;-68
2023/12/05 00:39:30;;;;;;;19.17;9.32;;;;;;;1.77;77.36;100626.22;7391382;19;20098;-68
2023/12/05 00:41:57;;;;;;;18.00;9.43;;;;;;;1.67;78.18;100628.34;7393143;19;20022;-68
2023/12/05 00:44:26;;;;;;;18.48;9.85;;;;;;;1.53;78.63;100628.03;7392960;19;20386;-68
2023/12/05 00:46:54;;;;;;;17.58;9.35;;;;;;;1.67;78.94;100627.50;7393951;19;20018;-68
2023/12/05 00:49:22;;;;;;;15.88;8.73;;;;;;;1.65;77.74;100616.28;7393744;19;20014;-68
2023/12/05 00:51:50;;;;;;;15.98;8.80;;;;;;;1.65;78.44;100616.28;7394264;19;20014;-68
2023/12/05 00:54:18;;;;;;;16.00;8.85;;;;;;;1.73;78.44;100613.38;7394278;19;20014;-68
2023/12/05 00:56:46;;;;;;;19.30;9.50;;;;;;;1.77;78.20;100602.72;7394393;19;20035;-68
2023/12/05 00:59:14;;;;;;;16.50;9.05;;;;;;;1.82;78.38;100602.53;7393027;19;20082;-68
2023/12/05 01:01:41;;;;;;;16.95;9.85;;;;;;;1.71;77.98;100609.03;7392929;19;20352;-69
2023/12/05 01:04:09;;;;;;;17.65;9.13;;;;;;;1.74;78.31;100609.84;7395583;19;20371;-69
2023/12/05 01:06:37;;;;;;;16.33;8.80;;;;;;;1.75;78.06;100601.94;7394090;19;20585;-70
2023/12/05 01:09:06;;;;;;;16.27;9.18;;;;;;;1.65;78.20;100598.00;7396051;19;20082;-70
2023/12/05 01:11:34;;;;;;;16.15;8.85;;;;;;;1.51;78.82;100597.69;7393049;19;20023;-71
2023/12/05 01:14:02;;;;;;;18.02;9.30;;;;;;;1.56;79.23;100596.59;7396709;19;20014;-71
2023/12/05 01:16:29;;;;;;;16.42;8.85;;;;;;;1.77;78.67;100596.66;7395264;19;20018;-65
2023/12/05 01:18:57;;;;;;;18.52;9.80;;;;;;;1.82;78.56;100594.72;7392669;19;20014;-66
2023/12/05 01:21:25;;;;;;;17.42;9.35;;;;;;;1.83;79.04;100599.91;7390608;19;20018;-67
2023/12/05 01:23:53;;;;;;;19.33;9.30;;;;;;;1.78;79.13;100598.34;7392282;19;20039;-66
2023/12/05 01:26:21;;;;;;;18.20;9.45;;;;;;;1.80;79.02;100592.19;7392307;19;20025;-67
2023/12/05 01:28:49;;;;;;;18.45;9.20;;;;;;;1.68;79.25;100597.91;7392739;19;20015;-68
2023/12/05 01:31:17;;;;;;;17.13;9.88;;;;;;;1.57;79.27;100595.69;7390818;19;20018;-69
2023/12/05 01:33:46;;;;;;;15.90;9.10;;;;;;;1.44;80.40;100584.88;7390621;19;20014;-69
2023/12/05 01:36:14;;;;;;;18.65;9.73;;;;;;;1.69;80.97;100587.38;7390921;19;20377;-69
2023/12/05 01:38:43;;;;;;;18.27;9.35;;;;;;;1.70;79.45;100594.28;7391385;19;20039;-70
2023/12/05 01:41:11;;;;;;;17.88;8.77;;;;;;;1.67;79.16;100597.00;7390099;19;20074;-70
2023/12/05 01:43:39;;;;;;;18.75;10.05;;;;;;;1.57;79.85;100590.47;7392022;19;20022;-70
2023/12/05 01:46:07;;;;;;;18.35;9.90;;;;;;;1.72;79.76;100586.41;7390642;19;20030;-70
2023/12/05 01:48:35;;;;;;;17.38;9.25;;;;;;;1.73;78.89;100593.31;7390783;19;20035;-70
2023/12/05 01:51:06;;;;;;;19.58;9.52;;;;;;;1.56;79.00;100593.97;7390412;19;20026;-70
2023/12/05 01:53:35;;;;;;;18.05;9.68;;;;;;;1.64;79.59;100591.06;7392330;19;20021;-70
2023/12/05 01:56:04;;;;;;;18.52;9.80;;;;;;;1.78;79.10;100593.13;7390953;19;20463;-71
2023/12/05 01:58:34;;;;;;;18.27;9.50;;;;;;;1.81;78.41;100587.81;7391979;19;20055;-71
2023/12/05 02:01:03;;;;;;;16.23;9.55;;;;;;;1.69;78.72;100591.75;7388586;19;20026;-71
2023/12/05 02:03:31;;;;;;;16.38;9.63;;;;;;;1.68;78.52;100584.84;7392181;19;20022;-71
2023/12/05 02:06:00;;;;;;;18.17;9.50;;;;;;;1.40;79.01;100574.63;7391359;19;20047;-71
2023/12/05 02:08:29;;;;;;;17.85;9.55;;;;;;;1.60;79.42;100582.53;7390388;19;20347;-71
2023/12/05 02:10:57;;;;;;;16.85;9.38;;;;;;;1.66;78.88;100577.06;7391083;19;20312;-71
2023/12/05 02:13:25;;;;;;;17.20;9.80;;;;;;;1.65;79.18;100575.38;7398574;19;20023;-71
2023/12/05 02:16:19;;;;;;;16.48;9.27;;;;;;;1.66;78.90;100571.00;7397356;19;20018;-71
2023/12/05 02:18:56;;;;;;;18.27;10.65;;;;;;;1.53;79.16;100582.84;7396721;19;20489;-71
2023/12/05 02:21:33;;;;;;;16.58;9.65;;;;;;;1.33;80.00;100580.97;7394095;19;20018;-71
2023/12/05 02:24:22;;;;;;;16.90;9.45;;;;;;;1.59;79.93;100579.97;7397764;19;20046;-71
2023/12/05 02:27:00;;;;;;;16.33;9.15;;;;;;;1.72;79.09;100565.53;7398524;19;20022;-71
2023/12/05 02:29:29;;;;;;;18.00;9.95;;;;;;;1.77;79.76;100574.03;7398220;19;20018;-71
2023/12/05 02:31:57;;;;;;;17.23;9.05;;;;;;;1.70;79.93;100569.94;7397959;19;20031;-71
2023/12/05 02:34:25;;;;;;;17.00;9.43;;;;;;;1.63;80.59;100566.72;7398082;19;20015;-71
2023/12/05 02:37:07;;;;;;;17.38;9.63;;;;;;;1.44;80.64;100561.38;7397715;19;20019;-67
2023/12/05 02:39:45;;;;;;;16.05;9.15;;;;;;;1.48;81.01;100558.66;7395669;19;20369;-67
2023/12/05 02:42:14;;;;;;;16.60;9.18;;;;;;;1.53;80.89;100552.38;7397636;19;20022;-67
2023/12/05 02:44:50;;;;;;;17.95;10.13;;;;;;;1.42;81.23;100555.41;7396339;19;20018;-67
2023/12/05 02:47:21;;;;;;;17.45;10.43;;;;;;;1.49;81.16;100550.78;7397799;19;20043;-67
2023/12/05 02:49:50;;;;;;;17.38;10.02;;;;;;;1.48;81.39;100554.28;7394552;19;20018;-68
2023/12/05 02:52:18;;;;;;;16.63;10.13;;;;;;;1.66;81.03;100555.34;7396214;19;20026;-68
2023/12/05 02:54:46;;;;;;;17.15;9.32;;;;;;;1.65;80.25;100544.03;7397298;19;20023;-68
2023/12/05 02:57:14;;;;;;;16.80;9.32;;;;;;;1.70;79.65;100549.06;7397068;19;20089;-69
2023/12/05 02:59:42;;;;;;;17.67;9.35;;;;;;;1.59;79.70;100543.44;7393277;19;20021;-69
2023/12/05 03:02:10;;;;;;;18.65;9.77;;;;;;;1.46;79.96;100540.47;7397191;19;20025;-67
2023/12/05 03:04:38;;;;;;;18.60;10.30;;;;;;;1.52;80.45;100541.97;7397531;19;20051;-67
2023/12/05 03:07:06;;;;;;;17.02;9.65;;;;;;;1.55;79.95;100542.72;7396696;19;20376;-68
2023/12/05 03:09:33;;;;;;;17.77;9.98;;;;;;;1.66;79.60;100545.75;7395003;19;20019;-68
2023/12/05 03:12:01;;;;;;;17.15;9.10;;;;;;;1.64;79.32;100533.66;7397067;19;20014;-68
2023/12/05 03:14:29;;;;;;;18.20;9.80;;;;;;;1.55;79.46;100537.47;7396530;19;20078;-67
2023/12/05 03:16:57;;;;;;;17.27;9.13;;;;;;;1.67;79.43;100538.75;7397068;19;20022;-67
2023/12/05 03:19:25;;;;;;;17.75;9.35;;;;;;;1.46;79.39;100530.88;7396967;19;20086;-68
2023/12/05 03:21:54;;;;;;;19.27;10.43;;;;;;;1.60;79.15;100534.69;7397619;19;20510;-68
2023/12/05 03:24:23;;;;;;;17.77;9.95;;;;;;;1.57;79.09;100532.22;7395246;19;20362;-67
2023/12/05 03:26:50;;;;;;;17.30;9.93;;;;;;;1.56;79.17;100530.50;7397056;19;20035;-67
2023/12/05 03:29:18;;;;;;;17.45;9.98;;;;;;;1.61;78.98;100526.81;7395641;19;20413;-67
2023/12/05 03:31:46;;;;;;;16.70;9.75;;;;;;;1.71;79.03;100528.13;7393286;19;20035;-68
2023/12/05 03:34:14;;;;;;;17.00;10.18;;;;;;;1.73;78.33;100529.84;7394995;19;20022;-68
2023/12/05 03:36:42;;;;;;;18.52;9.65;;;;;;;1.70;79.17;100523.81;7395903;19;20022;-67
2023/12/05 03:39:10;;;;;;;17.25;9.57;;;;;;;1.76;78.65;100529.72;7395342;19;20335;-67
2023/12/05 03:41:37;;;;;;;17.25;10.07;;;;;;;1.64;78.50;100531.91;7393116;19;20018;-68
2023/12/05 03:44:05;;;;;;;16.98;9.93;;;;;;;1.66;79.17;100531.84;7394149;19;20509;-69
2023/12/05 03:46:33;;;;;;;19.60;10.48;;;;;;;1.58;79.06;100529.53;7395441;19;20019;-69
2023/12/05 03:49:01;;;;;;;17.80;10.05;;;;;;;1.58;79.48;100526.94;7395980;19;20028;-68
2023/12/05 03:51:30;;;;;;;18.10;10.05;;;;;;;1.55;79.45;100521.84;7392614;19;20022;-68
2023/12/05 03:53:58;;;;;;;18.63;10.13;;;;;;;1.65;78.95;100524.94;7395206;19;20023;-68
2023/12/05 03:56:25;;;;;;;17.80;9.93;;;;;;;1.66;78.91;100524.00;7395243;19;20030;-68
2023/12/05 03:58:53;;;;;;;17.35;10.18;;;;;;;1.63;79.04;100526.75;7395424;19;20041;-67
2023/12/05 04:01:21;;;;;;;18.35;10.25;;;;;;;1.59;78.83;100527.78;7393167;19;20017;-67
2023/12/05 04:03:49;;;;;;;20.80;10.82;;;;;;;1.46;79.42;100524.81;7395560;19;20018;-67
2023/12/05 04:06:21;;;;;;;15.90;9.23;;;;;;;1.48;79.42;100522.97;7394977;19;20340;-67
2023/12/05 04:08:50;;;;;;;17.85;10.00;;;;;;;1.61;79.17;100519.00;7395380;19;20074;-67
2023/12/05 04:11:28;;;;;;;17.83;10.20;;;;;;;1.66;78.68;100522.25;7390431;19;20022;-67
2023/12/05 04:13:56;;;;;;;16.52;9.45;;;;;;;1.65;78.60;100525.78;7393432;19;20025;-67
2023/12/05 04:16:25;;;;;;;18.77;10.02;;;;;;;1.55;78.81;100527.06;7394468;19;20026;-69
2023/12/05 04:18:53;;;;;;;18.65;10.15;;;;;;;1.50;79.00;100523.78;7394923;19;20029;-68
2023/12/05 04:21:21;;;;;;;18.50;10.70;;;;;;;1.58;78.91;100524.31;7392050;19;20018;-69
2023/12/05 04:23:49;;;;;;;19.30;10.57;;;;;;;1.55;78.84;100526.19;7392778;19;20479;-69
2023/12/05 04:26:18;;;;;;;17.63;9.77;;;;;;;1.61;79.37;100534.66;7394153;19;20417;-69
2023/12/05 04:28:46;;;;;;;20.30;10.90;;;;;;;1.66;79.01;100532.69;7394540;19;20353;-67
2023/12/05 04:31:14;;;;;;;21.25;10.48;;;;;;;1.65;78.84;100523.16;7391873;19;20010;-68
2023/12/05 04:33:42;;;;;;;19.13;10.30;;;;;;;1.56;79.27;100533.13;7393349;19;20090;-69
2023/12/05 04:36:11;;;;;;;19.83;11.13;;;;;;;1.69;79.33;100527.34;7394000;19;20050;-69
2023/12/05 04:38:39;;;;;;;18.63;9.90;;;;;;;1.70;79.20;100526.44;7393578;19;20384;-70
2023/12/05 04:41:07;;;;;;;19.70;10.65;;;;;;;1.72;79.58;100526.38;7391504;19;20025;-69
2023/12/05 04:43:36;;;;;;;19.50;10.20;;;;;;;1.48;80.35;100524.75;7393514;19;20384;-69
2023/12/05 04:46:04;;;;;;;17.63;10.15;;;;;;;1.66;79.91;100514.41;7392275;19;20043;-69
2023/12/05 04:48:32;;;;;;;17.02;10.43;;;;;;;1.77;79.51;100520.97;7393695;19;20046;-69
2023/12/05 04:51:00;;;;;;;19.40;11.25;;;;;;;1.64;79.03;100524.09;7392470;19;20015;-68
2023/12/05 04:53:28;;;;;;;19.58;10.77;;;;;;;1.61;80.01;100523.38;7391504;19;20026;-66
2023/12/05 04:55:57;;;;;;;18.63;10.80;;;;;;;1.64;79.79;100525.81;7393007;19;20023;-67
2023/12/05 04:58:25;;;;;;;17.27;10.32;;;;;;;1.51;79.62;100522.88;7393417;19;20018;-67
2023/12/05 05:00:53;;;;;;;18.33;10.63;;;;;;;1.61;79.76;100518.13;7391233;19;20022;-66
2023/12/05 05:03:24;;;;;;;21.13;11.32;;;;;;;1.73;79.31;100524.63;7392944;19;20101;-67
2023/12/05 05:05:52;;;;;;;18.00;10.93;;;;;;;1.71;78.85;100525.50;7393031;19;20054;-68
2023/12/05 05:08:20;;;;;;;17.02;10.52;;;;;;;1.78;79.14;100517.44;7392868;19;20048;-68
2023/12/05 05:10:48;;;;;;;18.92;11.30;;;;;;;1.66;78.75;100524.84;7391185;19;20027;-69
2023/12/05 05:13:16;;;;;;;17.70;10.40;;;;;;;1.60;79.37;100522.50;7392676;19;20015;-69
2023/12/05 05:15:46;;;;;;;18.08;10.75;;;;;;;1.67;79.68;100521.31;7390741;19;20014;-69
2023/12/05 05:18:14;;;;;;;17.73;10.35;;;;;;;1.62;79.16;100525.06;7392903;19;20396;-68
2023/12/05 05:20:42;;;;;;;17.30;10.57;;;;;;;1.76;79.51;100520.13;7389290;19;20039;-70
2023/12/05 05:23:11;;;;;;;18.48;10.82;;;;;;;1.87;78.61;100519.66;7392418;19;20018;-70
2023/12/05 05:25:39;;;;;;;19.23;11.00;;;;;;;1.76;79.06;100522.75;7392597;19;20015;-70
2023/12/05 05:28:09;;;;;;;17.83;10.25;;;;;;;1.63;78.93;100518.91;7392303;19;20033;-68
2023/12/05 05:30:36;;;;;;;19.55;11.00;;;;;;;1.61;79.38;100516.38;7391139;19;20018;-69
2023/12/05 05:33:04;;;;;;;17.98;10.38;;;;;;;1.66;79.37;100514.41;7392022;19;20023;-69
2023/12/05 05:35:32;;;;;;;18.35;11.23;;;;;;;1.77;78.67;100511.38;7392339;19;20371;-69
2023/12/05 05:38:00;;;;;;;16.40;9.65;;;;;;;1.59;79.08;100515.56;7392767;19;20069;-69
2023/12/05 05:40:28;;;;;;;18.20;10.55;;;;;;;1.62;79.80;100518.06;7390606;19;20018;-68
2023/12/05 05:42:56;;;;;;;20.08;10.57;;;;;;;1.75;79.22;100522.78;7392386;19;20025;-68
2023/12/05 05:45:25;;;;;;;18.58;11.27;;;;;;;1.70;79.31;100513.38;7391506;19;20018;-69
2023/12/05 05:47:53;;;;;;;18.77;11.25;;;;;;;1.85;78.99;100511.91;7393473;19;20086;-69
2023/12/05 05:50:21;;;;;;;17.35;10.82;;;;;;;1.88;78.79;100513.53;7393667;19;20019;-68
2023/12/05 05:52:49;;;;;;;18.92;10.35;;;;;;;1.85;78.85;100514.50;7395033;19;20018;-69
2023/12/05 05:55:18;;;;;;;18.40;10.98;;;;;;;1.68;79.28;100514.38;7394949;19;20017;-69
2023/12/05 05:57:46;;;;;;;18.02;10.27;;;;;;;1.59;79.47;100515.56;7394946;19;20375;-69
2023/12/05 06:00:14;;;;;;;18.23;11.10;;;;;;;1.66;79.82;100514.41;7388573;19;20018;-67
2023/12/05 06:02:43;;;;;;;18.33;10.85;;;;;;;1.57;79.25;100508.75;7391743;19;20039;-67
2023/12/05 06:05:10;;;;;;;17.27;10.90;;;;;;;1.65;79.68;100507.50;7391266;19;20046;-68
2023/12/05 06:07:39;;;;;;;18.75;10.80;;;;;;;1.84;79.15;100519.81;7390946;19;20018;-68
2023/12/05 06:10:07;;;;;;;19.00;11.55;;;;;;;1.67;78.79;100512.66;7388587;19;20086;-69
2023/12/05 06:12:35;;;;;;;18.88;10.65;;;;;;;1.79;79.41;100519.13;7389713;19;20018;-69
2023/12/05 06:15:03;;;;;;;18.35;11.23;;;;;;;1.57;79.56;100501.75;7388943;19;20361;-66
2023/12/05 06:17:31;;;;;;;18.63;10.98;;;;;;;1.71;79.79;100512.47;7390820;19;20014;-65
2023/12/05 06:19:59;;;;;;;21.42;12.50;;;;;;;1.65;79.33;100519.72;7389052;19;20511;-64
2023/12/05 06:22:26;;;;;;;18.15;10.63;;;;;;;1.51;79.67;100522.88;7390525;19;20034;-64
2023/12/05 06:24:54;;;;;;;20.10;12.10;;;;;;;1.54;80.39;100524.50;7388835;19;20090;-65
2023/12/05 06:27:22;;;;;;;20.25;12.07;;;;;;;1.71;79.27;100524.66;7390452;19;20015;-66
2023/12/05 06:29:50;;;;;;;19.45;11.35;;;;;;;1.62;79.34;100523.28;7389204;19;20014;-66
2023/12/05 06:32:18;;;;;;;20.52;12.63;;;;;;;1.63;79.44;100521.53;7390216;19;20344;-67
2023/12/05 06:34:46;;;;;;;21.05;12.10;;;;;;;1.69;79.34;100535.19;7389869;19;20021;-67
2023/12/05 06:37:14;;;;;;;20.45;12.15;;;;;;;1.66;79.20;100531.84;7389747;19;20018;-68
2023/12/05 06:39:41;;;;;;;20.30;12.25;;;;;;;1.67;79.23;100530.91;7388833;19;20019;-67
2023/12/05 06:42:09;;;;;;;20.23;11.93;;;;;;;1.59;79.38;100530.38;7387515;19;20516;-66
2023/12/05 06:44:37;;;;;;;21.73;13.05;;;;;;;1.75;78.89;100525.38;7388158;19;20018;-63
2023/12/05 06:47:05;;;;;;;21.08;12.35;;;;;;;1.73;79.28;100517.63;7390041;19;20018;-64
2023/12/05 06:49:33;;;;;;;21.42;12.63;;;;;;;1.78;78.96;100527.88;7389399;19;20011;-64
2023/12/05 06:52:02;;;;;;;21.20;12.50;;;;;;;1.68;79.19;100528.28;7390241;19;20382;-64
2023/12/05 06:54:30;;;;;;;20.85;12.80;;;;;;;1.75;79.05;100525.38;7389605;19;20035;-64
2023/12/05 06:56:58;;;;;;;21.38;12.73;;;;;;;1.60;78.93;100530.34;7390669;19;20018;-64
2023/12/05 06:59:26;;;;;;;20.52;12.73;;;;;;;1.75;78.88;100534.06;7396411;19;20018;-63
2023/12/05 07:01:53;;;;;;;21.58;12.50;;;;;;;1.69;78.79;100534.34;7393898;19;20427;-63
2023/12/05 07:04:22;;;;;;;22.27;12.85;;;;;;;1.78;79.21;100533.09;7397032;19;20029;-64
2023/12/05 07:06:50;;;;;;;23.52;13.30;;;;;;;1.77;78.60;100527.03;7396733;19;20051;-64
2023/12/05 07:09:19;;;;;;;24.02;13.73;;;;;;;1.58;79.11;100531.31;7396580;19;20393;-64
2023/12/05 07:11:47;;;;;;;27.92;16.17;;;;;;;1.67;79.90;100534.38;7393792;19;20341;-65
2023/12/05 07:14:15;;;;;;;27.40;17.17;;;;;;;1.67;79.17;100539.59;7396056;19;20493;-66
2023/12/05 07:16:45;;;;;;;21.52;13.57;;;;;;;1.67;80.07;100550.03;7397709;19;20019;-66
2023/12/05 07:19:13;;;;;;;21.25;13.23;;;;;;;1.69;79.85;100539.56;7398147;19;20105;-65
2023/12/05 07:21:41;;;;;;;25.88;16.88;;;;;;;1.63;80.31;100538.03;7391536;19;20022;-65
2023/12/05 07:24:08;;;;;;;22.33;13.23;;;;;;;1.64;80.52;100541.47;7394335;19;20042;-65
2023/12/05 07:26:38;;;;;;;24.00;13.70;;;;;;;1.56;80.02;100533.13;7395843;19;20092;-66
2023/12/05 07:29:06;;;;;;;22.23;13.50;;;;;;;1.57;79.95;100545.28;7396121;19;20056;-67
2023/12/05 07:31:35;;;;;;;21.90;13.63;;;;;;;1.72;80.12;100539.44;7392786;19;20046;-64
2023/12/05 07:34:03;;;;;;;23.30;13.18;;;;;;;1.62;79.88;100543.31;7397574;19;20014;-64
2023/12/05 07:36:31;;;;;;;20.80;13.00;;;;;;;1.70;79.63;100542.09;7397035;19;20015;-64
2023/12/05 07:38:59;;;;;;;21.65;13.20;;;;;;;1.69;79.65;100543.00;7396719;19;20043;-64
2023/12/05 07:41:27;;;;;;;23.70;13.95;;;;;;;1.71;79.12;100549.00;7395161;19;20018;-64
2023/12/05 07:43:54;;;;;;;22.48;13.07;;;;;;;1.74;79.64;100539.34;7394309;19;20463;-65
2023/12/05 07:46:22;;;;;;;23.60;13.52;;;;;;;1.70;79.70;100544.69;7396843;19;20527;-65
2023/12/05 07:48:50;;;;;;;24.52;14.00;;;;;;;1.76;79.55;100543.63;7395297;19;20010;-65
2023/12/05 07:53:31;;;;;;;21.77;13.50;;;;;;;1.76;81.10;100546.22;7425603;19;20337;-64
2023/12/05 07:55:59;;;;;;;23.52;13.90;;;;;;;1.74;80.64;100550.66;7428125;19;20038;-64
2023/12/05 07:59:40;;;;;;;22.83;13.93;;;;;;;1.53;80.97;100548.91;7425104;19;20317;-64
2023/12/05 08:02:08;;;;;;;23.52;14.27;;;;;;;1.65;80.33;100557.09;7427850;19;20018;-64
2023/12/05 08:04:35;;;;;;;25.45;14.88;;;;;;;1.73;79.53;100567.22;7426840;19;20534;-64
2023/12/05 08:07:04;;;;;;;21.98;14.20;;;;;;;1.76;78.66;100553.22;7428516;19;20030;-64
2023/12/05 08:09:32;;;;;;;23.95;13.98;;;;;;;1.68;78.97;100559.59;7427703;19;20462;-65
2023/12/05 08:12:00;;;;;;;23.80;14.18;;;;;;;1.69;78.59;100566.50;7426275;19;20451;-65
2023/12/05 08:14:28;;;;;;;23.33;14.68;;;;;;;1.75;78.70;100561.94;7427355;19;20015;-64
2023/12/05 08:16:56;;;;;;;23.35;14.00;;;;;;;1.79;78.23;100568.72;7427311;19;20384;-64
2023/12/05 08:19:25;;;;;;;24.45;13.85;;;;;;;1.77;78.19;100570.56;7423209;19;20015;-64
2023/12/05 08:21:53;;;;;;;24.27;14.88;;;;;;;1.74;78.18;100570.69;7427661;19;20086;-64
2023/12/05 08:24:21;;;;;;;23.70;13.95;;;;;;;1.67;78.23;100576.13;7427029;19;20116;-64
2023/12/05 08:26:48;;;;;;;26.13;15.30;;;;;;;1.76;78.21;100574.09;7427883;19;20018;-64
2023/12/05 08:29:18;;;;;;;23.17;14.15;;;;;;;1.65;78.17;100579.75;7427232;19;20025;-64
2023/12/05 08:31:45;;;;;;;24.42;14.35;;;;;;;1.62;78.32;100574.63;7424605;19;20018;-64
2023/12/05 08:34:13;;;;;;;23.98;14.18;;;;;;;1.65;78.45;100570.16;7424942;19;20052;-63
2023/12/05 08:36:44;;;;;;;22.38;14.25;;;;;;;1.58;78.42;100575.66;7426866;19;20020;-64
2023/12/05 08:39:12;;;;;;;24.67;15.50;;;;;;;1.55;78.68;100575.78;7424549;19;20053;-64
2023/12/05 08:41:39;;;;;;;24.02;14.30;;;;;;;1.61;78.37;100565.13;7423533;19;20034;-64
2023/12/05 08:44:07;;;;;;;24.23;14.48;;;;;;;1.64;77.94;100572.78;7427399;19;20014;-64
2023/12/05 08:46:35;;;;;;;22.73;13.27;;;;;;;1.82;78.04;100582.50;7426724;19;20022;-64
2023/12/05 08:49:03;;;;;;;26.40;15.57;;;;;;;1.76;77.89;100577.56;7425468;19;20027;-64
2023/12/05 08:51:31;;;;;;;24.77;14.55;;;;;;;1.61;78.11;100570.34;7423578;19;20035;-64
2023/12/05 08:53:59;;;;;;;24.10;14.43;;;;;;;1.66;78.36;100569.22;7424983;19;20018;-63
2023/12/05 08:56:27;;;;;;;27.73;15.32;;;;;;;1.86;77.96;100572.78;7426676;19;20025;-64
2023/12/05 08:58:55;;;;;;;26.23;15.35;;;;;;;1.80;77.01;100576.50;7425333;19;20451;-64
2023/12/05 09:01:23;;;;;;;26.38;14.93;;;;;;;1.84;77.46;100575.47;7423785;19;20046;-64
2023/12/05 09:03:51;;;;;;;24.08;15.35;;;;;;;1.76;77.35;100576.72;7426543;19;20018;-64
2023/12/05 09:06:19;;;;;;;24.25;14.45;;;;;;;1.75;77.59;100585.44;7426094;19;20376;-64
2023/12/05 09:08:47;;;;;;;24.30;14.88;;;;;;;1.77;77.39;100589.69;7424072;19;20511;-64
2023/12/05 09:11:16;;;;;;;25.75;16.00;;;;;;;1.70;77.72;100583.00;7393975;19;20376;-64
2023/12/05 09:13:44;;;;;;;25.08;15.35;;;;;;;1.64;77.33;100576.28;7397732;19;20017;-64
2023/12/05 09:16:12;;;;;;;24.88;15.00;;;;;;;1.73;77.27;100592.47;7396851;19;20042;-64
2023/12/05 09:18:39;;;;;;;24.85;15.00;;;;;;;1.81;77.75;100586.03;7396156;19;20018;-66
2023/12/05 09:21:08;;;;;;;25.58;14.98;;;;;;;1.90;77.29;100596.09;7394609;19;20022;-63
2023/12/05 09:23:36;;;;;;;25.25;15.02;;;;;;;1.98;77.50;100587.94;7396937;19;20014;-63
2023/12/05 09:26:04;;;;;;;23.52;14.50;;;;;;;1.99;76.62;100597.50;7397140;19;20518;-62
2023/12/05 09:28:32;;;;;;;24.80;15.75;;;;;;;1.81;77.51;100596.47;7396932;19;20011;-64
2023/12/05 09:31:00;;;;;;;26.40;14.70;;;;;;;1.84;77.17;100593.75;7395012;19;20022;-63
2023/12/05 09:33:28;;;;;;;25.88;15.65;;;;;;;1.82;77.39;100599.94;7396530;19;20118;-62
2023/12/05 09:35:56;;;;;;;23.80;14.70;;;;;;;1.88;77.31;100594.47;7396297;19;20042;-63
2023/12/05 09:38:24;;;;;;;26.02;14.77;;;;;;;2.04;76.73;100592.09;7396313;19;20085;-63
2023/12/05 09:40:53;;;;;;;27.83;15.00;;;;;;;1.98;76.78;100601.00;7392733;19;20363;-63
2023/12/05 09:43:23;;;;;;;23.77;15.50;;;;;;;1.84;77.40;100593.75;7396411;19;20467;-63
2023/12/05 09:46:03;;;;;;;24.63;14.95;;;;;;;1.95;76.84;100591.56;7396706;19;20047;-63
2023/12/05 09:48:39;;;;;;;24.73;15.15;;;;;;;2.07;76.89;100603.25;7394931;19;20021;-63
2023/12/05 09:51:14;;;;;;;24.02;14.90;;;;;;;2.05;76.72;100606.84;7396571;19;20007;-64
2023/12/05 09:53:43;;;;;;;27.65;14.93;;;;;;;1.83;77.50;100591.19;7399139;19;20010;-64
2023/12/05 09:56:13;;;;;;;25.80;16.02;;;;;;;2.01;77.04;100600.88;7396310;19;20014;-65
2023/12/05 09:58:45;;;;;;;24.58;15.63;;;;;;;2.02;77.36;100599.97;7393152;19;20034;-65
2023/12/05 10:01:15;;;;;;;26.85;15.73;;;;;;;1.92;78.09;100611.72;7392009;19;20019;-64
2023/12/05 10:03:44;;;;;;;28.10;15.88;;;;;;;1.92;77.99;100596.06;7395720;19;20028;-64
2023/12/05 10:06:15;;;;;;;27.13;15.65;;;;;;;2.02;77.73;100599.97;7396130;19;20046;-64
2023/12/05 10:08:46;;;;;;;25.23;15.38;;;;;;;2.06;77.68;100595.47;7394761;19;20033;-64
2023/12/05 10:11:14;;;;;;;26.95;16.20;;;;;;;1.98;78.22;100603.63;7393759;19;20511;-65
2023/12/05 10:13:42;;;;;;;26.52;16.75;;;;;;;1.98;78.14;100595.78;7394849;19;20094;-64
2023/12/05 10:16:10;;;;;;;27.80;16.92;;;;;;;2.03;78.31;100595.63;7395688;19;20014;-64
2023/12/05 10:18:39;;;;;;;28.63;16.48;;;;;;;2.12;78.11;100603.06;7393306;19;20018;-64
2023/12/05 10:21:07;;;;;;;25.23;15.50;;;;;;;2.03;77.94;100593.84;7390893;19;20416;-64
2023/12/05 10:23:35;;;;;;;26.35;15.70;;;;;;;1.84;78.44;100583.31;7396513;19;20018;-64
2023/12/05 10:26:03;;;;;;;27.55;16.20;;;;;;;2.01;78.51;100595.66;7395735;19;20026;-64
2023/12/05 10:28:30;;;;;;;27.35;16.08;;;;;;;1.87;79.04;100590.16;7395399;19;20015;-63
2023/12/05 10:30:59;;;;;;;25.58;15.50;;;;;;;1.99;78.41;100588.81;7394412;19;20429;-64
2023/12/05 10:33:28;;;;;;;27.23;16.15;;;;;;;1.94;78.37;100591.59;7394671;19;20026;-65
2023/12/05 10:35:56;;;;;;;28.02;16.58;;;;;;;2.04;78.64;100587.72;7395617;19;20018;-64
2023/12/05 10:38:24;;;;;;;26.88;16.40;;;;;;;2.17;78.12;100583.66;7394355;19;20373;-64
2023/12/05 10:40:57;;;;;;;26.02;16.05;;;;;;;2.12;77.92;100592.63;7392848;19;20491;-64
2023/12/05 10:43:26;;;;;;;27.25;16.23;;;;;;;2.04;78.58;100587.72;7394364;19;20022;-65
2023/12/05 10:45:55;;;;;;;26.75;16.27;;;;;;;1.98;79.00;100589.72;7394057;19;20022;-64
2023/12/05 10:48:23;;;;;;;26.38;16.20;;;;;;;1.95;78.85;100572.44;7392739;19;20054;-64
2023/12/05 10:50:52;;;;;;;31.45;17.05;;;;;;;2.18;78.39;100587.16;7392361;19;20489;-64
2023/12/05 10:53:20;;;;;;;26.05;16.35;;;;;;;2.12;77.86;100577.78;7394193;19;20507;-64
2023/12/05 10:55:48;;;;;;;28.23;17.02;;;;;;;2.14;78.33;100578.59;7393934;19;20014;-64
2023/12/05 10:58:16;;;;;;;26.13;16.15;;;;;;;2.24;78.09;100573.81;7391829;19;20027;-64
2023/12/05 11:00:46;;;;;;;24.88;15.75;;;;;;;2.20;77.95;100577.47;7390973;19;20082;-65
2023/12/05 11:03:14;;;;;;;26.42;16.67;;;;;;;2.15;78.07;100571.59;7393764;19;20011;-64
2023/12/05 11:05:43;;;;;;;28.67;16.63;;;;;;;2.17;77.84;100570.59;7393809;19;20376;-64
2023/12/05 11:08:11;;;;;;;27.55;16.80;;;;;;;2.26;77.47;100569.38;7393321;19;20007;-64
2023/12/05 11:10:39;;;;;;;29.35;17.35;;;;;;;2.23;78.11;100566.06;7391829;19;20015;-65
2023/12/05 11:13:12;;;;;;;26.40;16.45;;;;;;;2.15;78.09;100569.84;7392783;19;20022;-63
2023/12/05 11:15:44;;;;;;;26.55;16.60;;;;;;;2.18;78.12;100563.66;7393014;19;20015;-65
2023/12/05 11:18:34;;;;;;;27.25;16.60;;;;;;;2.16;78.24;100565.47;7391791;19;20025;-64
2023/12/05 11:21:14;;;;;;;27.08;16.75;;;;;;;2.05;79.11;100571.13;7391709;19;20018;-64
2023/12/05 11:23:57;;;;;;;26.55;16.55;;;;;;;2.23;78.33;100566.91;7393143;19;20556;-65
2023/12/05 11:26:47;;;;;;;26.90;16.80;;;;;;;2.36;78.13;100564.59;7393196;19;20123;-64
2023/12/05 11:29:38;;;;;;;23.58;15.40;;;;;;;2.34;77.87;100564.69;7392815;19;20074;-65
2023/12/05 11:32:21;;;;;;;26.42;16.25;;;;;;;2.37;77.49;100566.31;7392426;19;20022;-64